Time;durP1;ratioP1;P1;durP2;ratioP2;P2;SDS_P1;SDS_P2;PMS_P1;PMS_P2;Temp;Humidity;BMP_temperature;BMP_pressure;BME280_temperature;BME280_humidity;BME280_pressure;Samples;Min_cycle;Max_cycle;Signal;HPM_P1;HPM_P2
2022/03/10 00:04:45;;;;;;;17.73;10.45;;;;;;;5.05;43.92;101322.09;8215728;34;21086;-73
2022/03/10 00:09:48;;;;;;;22.08;12.27;;;;;;;5.05;43.91;101323.88;8214902;34;20145;-74
2022/03/10 00:14:51;;;;;;;18.73;11.15;;;;;;;4.98;44.15;101327.69;8215244;34;20238;-74
2022/03/10 00:19:55;;;;;;;19.33;11.18;;;;;;;4.79;44.90;101324.94;8214501;34;20300;-74
2022/03/10 00:24:58;;;;;;;19.38;10.77;;;;;;;4.66;45.10;101319.25;8213647;34;21064;-74
2022/03/10 00:30:01;;;;;;;17.38;11.05;;;;;;;4.53;45.37;101332.22;8214854;34;20440;-74
2022/03/10 00:35:06;;;;;;;20.05;12.00;;;;;;;4.49;45.68;101343.03;8215674;34;20431;-74
2022/03/10 00:40:11;;;;;;;18.85;11.32;;;;;;;4.34;46.08;101341.88;8211325;34;20887;-74
2022/03/10 00:45:16;;;;;;;18.85;11.05;;;;;;;4.22;46.27;101348.53;8200908;34;21519;-72
2022/03/10 00:50:23;;;;;;;18.95;11.27;;;;;;;4.16;46.43;101348.78;8219217;34;20484;-74
2022/03/10 00:55:26;;;;;;;21.77;12.13;;;;;;;4.21;46.57;101357.44;8227732;34;21219;-74
2022/03/10 01:00:29;;;;;;;18.95;11.15;;;;;;;4.08;46.77;101365.00;8220905;34;20436;-74
2022/03/10 01:05:34;;;;;;;17.48;11.38;;;;;;;4.00;47.22;101360.91;8215257;34;20198;-74
2022/03/10 01:10:38;;;;;;;19.15;11.15;;;;;;;3.94;47.79;101356.69;8211969;34;20508;-74
2022/03/10 01:15:42;;;;;;;22.88;11.32;;;;;;;3.95;47.34;101361.97;8213713;34;20410;-73
2022/03/10 01:20:46;;;;;;;19.08;11.60;;;;;;;3.95;47.46;101353.13;8213817;34;20643;-73
2022/03/10 01:25:50;;;;;;;19.90;10.85;;;;;;;3.91;47.39;101351.50;8212950;34;20435;-74
2022/03/10 01:30:53;;;;;;;19.98;11.27;;;;;;;3.99;47.14;101348.56;8214572;34;20426;-74
2022/03/10 01:35:58;;;;;;;16.67;10.73;;;;;;;4.01;47.13;101352.91;8212481;34;20436;-74
2022/03/10 01:41:01;;;;;;;17.95;11.10;;;;;;;3.94;47.72;101351.38;8211917;34;20198;-74
2022/03/10 01:46:04;;;;;;;17.10;10.90;;;;;;;3.73;48.01;101343.31;8210771;34;20153;-74
2022/03/10 01:51:08;;;;;;;18.75;11.30;;;;;;;3.70;48.28;101348.75;8208695;34;20145;-74
2022/03/10 01:56:12;;;;;;;20.33;11.45;;;;;;;3.49;48.58;101346.88;8212093;34;20514;-74
2022/03/10 02:01:15;;;;;;;16.10;11.65;;;;;;;3.57;48.39;101344.78;8211475;34;20184;-74
2022/03/10 02:06:20;;;;;;;24.52;11.23;;;;;;;3.60;48.36;101343.81;8213285;34;20195;-74
2022/03/10 02:11:24;;;;;;;19.13;11.40;;;;;;;3.50;48.50;101343.28;8207240;34;20443;-74
2022/03/10 02:21:51;;;;;;;20.15;11.27;;;;;;;3.34;48.69;101342.09;8207005;34;21449;-74
2022/03/10 02:26:55;;;;;;;21.27;11.63;;;;;;;3.28;49.12;101336.06;8207063;34;20151;-74
2022/03/10 02:31:58;;;;;;;17.42;10.30;;;;;;;3.28;49.39;101337.88;8211437;34;20634;-74
2022/03/10 02:37:03;;;;;;;19.02;10.80;;;;;;;3.22;49.37;101336.28;8211799;34;20444;-74
2022/03/10 02:42:09;;;;;;;16.10;11.13;;;;;;;3.15;49.67;101337.41;8212155;34;20609;-73
2022/03/10 02:47:13;;;;;;;20.80;10.82;;;;;;;3.15;49.65;101337.41;8212459;34;21068;-73
2022/03/10 02:52:16;;;;;;;18.33;11.10;;;;;;;3.11;49.69;101335.81;8212286;34;21491;-74
2022/03/10 02:57:21;;;;;;;19.02;11.32;;;;;;;2.96;50.36;101338.97;8210794;34;21040;-74
2022/03/10 03:02:24;;;;;;;20.40;10.98;;;;;;;2.87;50.44;101334.84;8210471;34;20424;-73
2022/03/10 03:07:27;;;;;;;24.92;11.00;;;;;;;2.83;50.74;101331.44;8210088;34;20424;-74
2022/03/10 03:12:31;;;;;;;17.05;10.68;;;;;;;2.83;50.80;101333.22;8210289;34;20417;-74
2022/03/10 03:17:34;;;;;;;20.15;11.68;;;;;;;2.76;51.06;101335.22;8210111;34;20453;-74
2022/03/10 03:22:37;;;;;;;16.98;11.27;;;;;;;2.67;51.18;101329.34;8216403;34;22018;-74
2022/03/10 03:27:42;;;;;;;23.85;11.45;;;;;;;2.67;51.18;101327.56;8217662;34;20426;-74
2022/03/10 03:32:46;;;;;;;20.85;11.45;;;;;;;2.65;51.19;101329.41;8214142;34;20530;-74
2022/03/10 03:37:49;;;;;;;19.25;11.52;;;;;;;2.56;51.46;101329.72;8213567;34;20203;-74
2022/03/10 03:42:53;;;;;;;18.40;10.63;;;;;;;2.55;50.97;101320.88;8212502;34;20153;-73
2022/03/10 03:47:57;;;;;;;20.02;12.15;;;;;;;2.68;50.78;101318.69;8213755;34;20480;-74
2022/03/10 03:53:00;;;;;;;20.10;11.70;;;;;;;2.73;50.29;101318.53;8216455;34;20169;-74
2022/03/10 03:58:04;;;;;;;20.65;11.10;;;;;;;2.78;50.24;101320.13;8208912;34;20199;-74
2022/03/10 04:03:09;;;;;;;20.08;10.85;;;;;;;2.74;50.44;101329.09;8214022;34;20493;-74
2022/03/10 04:08:13;;;;;;;20.77;10.95;;;;;;;2.78;50.50;101346.66;8213959;34;20451;-74
2022/03/10 04:13:17;;;;;;;18.67;10.20;;;;;;;2.73;50.32;101353.88;8214210;34;20480;-73
2022/03/10 04:18:20;;;;;;;17.85;11.25;;;;;;;2.61;50.77;101349.00;8210146;34;20310;-74
2022/03/10 04:23:23;;;;;;;21.60;11.55;;;;;;;2.57;51.07;101342.03;8210332;34;22001;-74
2022/03/10 04:28:28;;;;;;;22.57;12.63;;;;;;;2.58;50.91;101346.44;8198818;34;20445;-74
2022/03/10 04:33:31;;;;;;;17.27;10.27;;;;;;;2.40;51.09;101347.84;8211928;34;20270;-74
2022/03/10 04:38:34;;;;;;;17.25;11.07;;;;;;;2.44;51.23;101354.81;8210636;34;21005;-73
2022/03/10 04:43:39;;;;;;;18.73;10.93;;;;;;;2.44;50.96;101361.88;8215295;34;20470;-73
2022/03/10 04:48:42;;;;;;;17.20;10.40;;;;;;;2.38;51.38;101366.47;8218264;34;20320;-74
2022/03/10 04:53:46;;;;;;;16.03;10.67;;;;;;;2.35;51.62;101373.66;8214497;34;20485;-73
2022/03/10 04:58:50;;;;;;;18.05;11.43;;;;;;;2.26;51.94;101369.50;8204820;34;21025;-74
2022/03/10 05:03:53;;;;;;;17.47;9.53;;;;;;;2.29;51.84;101371.19;8211183;34;20492;-73
2022/03/10 05:09:02;;;;;;;19.53;11.17;;;;;;;2.20;52.10;101367.06;8208814;34;20698;-73
2022/03/10 05:14:09;;;;;;;21.20;11.60;;;;;;;2.16;52.05;101383.94;8208174;34;20447;-73
2022/03/10 05:19:12;;;;;;;17.58;10.18;;;;;;;2.12;52.20;101382.31;8202946;34;20185;-73
2022/03/10 05:24:15;;;;;;;18.13;11.00;;;;;;;2.02;52.25;101367.59;8200618;34;20299;-73
2022/03/10 05:29:19;;;;;;;16.83;11.50;;;;;;;2.07;52.25;101366.53;8199881;34;20141;-73
2022/03/10 05:34:26;;;;;;;18.65;11.85;;;;;;;2.22;51.92;101361.69;8232541;34;20424;-73
2022/03/10 05:39:29;;;;;;;19.07;10.67;;;;;;;2.22;51.78;101366.97;8214748;34;20570;-74
2022/03/10 05:44:34;;;;;;;19.97;10.77;;;;;;;2.23;51.70;101369.59;8210207;34;20482;-72
2022/03/10 05:49:37;;;;;;;21.63;11.03;;;;;;;2.20;52.06;101384.75;8212119;34;20148;-72
2022/03/10 05:54:40;;;;;;;21.38;10.93;;;;;;;2.11;52.21;101378.81;8213351;34;20300;-73
2022/03/10 05:59:44;;;;;;;25.02;11.48;;;;;;;2.10;52.45;101384.13;8214475;34;20306;-73
2022/03/10 06:04:47;;;;;;;19.00;10.63;;;;;;;2.15;52.08;101398.13;8224700;34;20465;-73
2022/03/10 06:09:50;;;;;;;17.47;10.60;;;;;;;2.12;52.19;101404.38;8224914;34;20475;-73
2022/03/10 06:14:55;;;;;;;17.50;10.47;;;;;;;2.10;52.28;101410.66;8214845;34;21226;-73
2022/03/10 06:19:59;;;;;;;17.43;10.77;;;;;;;2.12;52.25;101414.13;8211380;34;20247;-73
2022/03/10 06:25:10;;;;;;;19.90;10.73;;;;;;;2.20;52.23;101413.91;8214790;34;21127;-73
2022/03/10 06:30:15;;;;;;;17.90;10.30;;;;;;;2.54;51.42;101424.38;8208367;34;20608;-74
2022/03/10 06:35:18;;;;;;;21.92;11.63;;;;;;;2.84;50.74;101410.13;8206840;34;20755;-72
2022/03/10 06:40:21;;;;;;;17.30;10.90;;;;;;;3.16;50.01;101418.81;8205692;34;20426;-73
2022/03/10 06:45:25;;;;;;;14.02;8.90;;;;;;;3.53;50.26;101424.66;8208508;34;20251;-73
2022/03/10 06:50:29;;;;;;;17.02;9.20;;;;;;;3.91;48.28;101425.94;8204930;34;20589;-73
2022/03/10 06:55:32;;;;;;;16.08;8.82;;;;;;;4.27;47.88;101431.66;8204506;34;20180;-73
2022/03/10 07:00:36;;;;;;;17.42;9.15;;;;;;;4.39;46.87;101428.56;8202930;34;20197;-73
2022/03/10 07:05:39;;;;;;;14.85;9.02;;;;;;;4.73;46.17;101429.03;8204257;34;20461;-72
2022/03/10 07:10:42;;;;;;;16.88;9.48;;;;;;;4.65;46.41;101431.97;8205974;34;20942;-73
2022/03/10 07:15:47;;;;;;;16.45;10.02;;;;;;;5.22;45.16;101437.69;8211153;34;20436;-73
2022/03/10 07:20:50;;;;;;;15.82;10.60;;;;;;;5.39;44.55;101440.50;8191569;34;20440;-72
2022/03/10 07:25:53;;;;;;;19.35;10.63;;;;;;;5.73;43.80;101444.38;8197096;34;20501;-74
2022/03/10 07:30:58;;;;;;;17.57;10.33;;;;;;;5.70;43.51;101448.06;8198779;34;20432;-74
2022/03/10 07:36:01;;;;;;;16.25;9.50;;;;;;;5.81;43.59;101452.03;8206977;34;20203;-73
2022/03/10 07:41:04;;;;;;;16.42;10.32;;;;;;;6.05;43.14;101447.41;8215255;34;20589;-73
2022/03/10 07:46:08;;;;;;;17.38;10.18;;;;;;;6.37;42.92;101445.94;8226237;34;21850;-72
2022/03/10 07:51:11;;;;;;;18.45;9.98;;;;;;;6.75;42.30;101441.47;8214952;34;20472;-74
2022/03/10 07:56:14;;;;;;;13.63;9.95;;;;;;;6.66;42.17;101449.88;8212170;34;20938;-71
2022/03/10 08:01:19;;;;;;;15.38;11.05;;;;;;;6.94;41.91;101449.47;8208960;34;20507;-71
2022/03/10 08:06:24;;;;;;;18.23;10.02;;;;;;;7.16;41.63;101451.97;8208365;34;20506;-74
2022/03/10 08:11:27;;;;;;;19.80;10.27;;;;;;;7.46;41.12;101448.66;8218844;34;20497;-72
2022/03/10 08:16:32;;;;;;;14.48;9.82;;;;;;;7.78;40.55;101452.34;8206621;34;20617;-72
2022/03/10 08:21:35;;;;;;;14.90;9.65;;;;;;;8.09;39.82;101443.56;8208224;34;20356;-72
2022/03/10 08:26:39;;;;;;;14.77;9.25;;;;;;;7.98;40.44;101445.06;8205903;34;21277;-71
2022/03/10 08:31:43;;;;;;;16.73;10.40;;;;;;;8.31;39.48;101435.25;8208167;34;20438;-72
2022/03/10 08:36:49;;;;;;;16.33;10.35;;;;;;;8.10;39.52;101442.63;8213836;34;20871;-72
2022/03/10 08:41:53;;;;;;;16.50;10.50;;;;;;;8.35;39.29;101435.91;8214424;34;20904;-72
2022/03/10 08:46:57;;;;;;;14.93;10.00;;;;;;;8.94;38.12;101434.41;8212588;34;20347;-72
2022/03/10 08:52:01;;;;;;;15.65;9.43;;;;;;;9.25;38.30;101427.25;8211175;34;20591;-77
2022/03/10 08:57:05;;;;;;;19.48;10.50;;;;;;;9.40;37.56;101422.78;8211352;34;20619;-73
2022/03/10 09:02:10;;;;;;;16.23;9.73;;;;;;;9.89;37.57;101412.66;8210594;34;20421;-73
2022/03/10 09:07:13;;;;;;;13.88;9.60;;;;;;;10.27;36.61;101414.75;8210774;34;20188;-72
2022/03/10 09:12:16;;;;;;;16.08;9.70;;;;;;;10.46;35.83;101421.66;8210295;34;20580;-73
2022/03/10 09:17:21;;;;;;;15.15;10.18;;;;;;;10.32;35.72;101417.16;8201342;34;21074;-73
2022/03/10 09:22:25;;;;;;;13.88;10.32;;;;;;;10.54;35.39;101401.41;8201220;34;20788;-74
2022/03/10 09:27:28;;;;;;;13.63;9.02;;;;;;;10.75;35.59;101411.69;8191086;34;20539;-73
2022/03/10 09:32:36;;;;;;;12.60;8.95;;;;;;;11.50;35.25;101404.84;8200968;34;21985;-74
2022/03/10 09:37:40;;;;;;;14.20;9.65;;;;;;;11.92;33.79;101404.66;8203638;34;20457;-74
2022/03/10 09:42:44;;;;;;;16.42;9.95;;;;;;;11.71;34.49;101402.53;8201965;34;20279;-74
2022/03/10 09:47:48;;;;;;;16.35;9.23;;;;;;;11.96;34.05;101400.78;8219705;34;20601;-75
2022/03/10 09:52:51;;;;;;;15.48;10.07;;;;;;;12.31;33.60;101402.81;8199333;34;20436;-73
2022/03/10 09:57:55;;;;;;;14.38;9.90;;;;;;;12.06;33.82;101390.22;8124586;34;21188;-73
2022/03/10 10:03:00;;;;;;;15.18;10.30;;;;;;;12.26;33.52;101384.28;8253534;34;20438;-73
2022/03/10 10:08:08;;;;;;;17.80;9.80;;;;;;;12.62;32.85;101389.81;8251540;34;20977;-71
2022/03/10 10:13:25;;;;;;;13.88;8.63;;;;;;;12.19;33.29;101377.59;8252534;34;20148;-72
2022/03/10 10:18:32;;;;;;;14.98;9.40;;;;;;;12.28;33.16;101379.63;8252039;34;22386;-72
2022/03/10 10:23:50;;;;;;;15.18;9.30;;;;;;;12.70;32.76;101380.19;8255585;34;20495;-72
2022/03/10 10:28:54;;;;;;;14.98;10.13;;;;;;;13.16;32.63;101382.06;8255288;34;20558;-72
2022/03/10 10:34:01;;;;;;;12.98;8.90;;;;;;;13.98;32.53;101365.81;8263504;34;20148;-72
2022/03/10 10:39:10;;;;;;;15.77;9.48;;;;;;;13.78;32.15;101363.88;8261546;34;20505;-73
2022/03/10 10:44:18;;;;;;;15.77;9.88;;;;;;;14.20;31.52;101364.97;8257276;34;21118;-72
2022/03/10 10:49:23;;;;;;;14.85;9.93;;;;;;;14.25;30.09;101354.63;8258189;34;21877;-73
2022/03/10 10:54:31;;;;;;;12.63;9.95;;;;;;;14.46;31.03;101359.31;8256367;34;20544;-73
2022/03/10 10:59:37;;;;;;;16.05;10.25;;;;;;;14.92;30.02;101342.81;8256311;34;20436;-72
2022/03/10 11:04:46;;;;;;;15.50;10.00;;;;;;;14.78;30.71;101335.88;8262524;34;20172;-71
2022/03/10 11:09:53;;;;;;;16.02;9.50;;;;;;;15.12;30.44;101333.00;8280896;34;20437;-72
2022/03/10 11:14:56;;;;;;;14.45;9.57;;;;;;;15.51;29.86;101337.84;8265416;34;20148;-71
2022/03/10 11:20:04;;;;;;;13.48;9.90;;;;;;;15.80;28.63;101338.88;8263341;34;20188;-73
2022/03/10 11:25:24;;;;;;;15.10;9.82;;;;;;;16.15;27.88;101333.03;8263278;34;20191;-72
2022/03/10 11:30:29;;;;;;;14.45;10.15;;;;;;;16.66;27.58;101327.59;8262895;34;20527;-72
2022/03/10 11:35:40;;;;;;;13.68;9.95;;;;;;;17.31;27.04;101322.47;8265871;34;20187;-72
2022/03/10 11:40:47;;;;;;;13.30;9.20;;;;;;;18.12;26.53;101329.06;8243634;34;20179;-72
2022/03/10 11:45:50;;;;;;;14.02;9.85;;;;;;;19.05;25.53;101317.97;8267170;34;20187;-72
2022/03/10 11:50:56;;;;;;;13.82;9.40;;;;;;;19.13;24.30;101312.59;8266979;34;21107;-72
2022/03/10 11:55:59;;;;;;;13.27;9.40;;;;;;;19.88;24.15;101298.44;8272524;34;20334;-71
2022/03/10 12:01:02;;;;;;;12.43;8.80;;;;;;;19.65;23.68;101298.16;8291602;34;21609;-71
2022/03/10 12:06:08;;;;;;;14.87;10.00;;;;;;;20.02;23.77;101289.66;8280122;34;21276;-71
2022/03/10 12:11:16;;;;;;;13.40;9.15;;;;;;;19.20;24.36;101286.44;8278085;34;20429;-71
2022/03/10 12:16:40;;;;;;;14.40;8.85;;;;;;;18.92;24.11;101277.53;8291167;34;20539;-71
2022/03/10 12:21:45;;;;;;;12.18;8.32;;;;;;;18.99;23.53;101273.16;8303247;34;20562;-72
2022/03/10 12:26:48;;;;;;;12.75;9.45;;;;;;;19.14;24.35;101273.47;8304271;34;20623;-71
2022/03/10 12:31:55;;;;;;;12.88;9.80;;;;;;;19.26;23.26;101278.66;8306428;34;20623;-72
2022/03/10 12:37:00;;;;;;;16.52;9.18;;;;;;;19.63;22.89;101265.59;8303893;34;20570;-72
2022/03/10 12:42:04;;;;;;;14.43;8.85;;;;;;;19.15;23.17;101272.44;8278814;34;20187;-73
2022/03/10 12:47:11;;;;;;;13.48;9.68;;;;;;;19.10;23.78;101260.31;8294307;34;20439;-72
2022/03/10 12:52:25;;;;;;;14.82;9.90;;;;;;;19.43;23.72;101264.97;8304211;34;20460;-73
2022/03/10 12:57:29;;;;;;;16.05;9.60;;;;;;;18.46;23.81;101252.28;8286335;34;20155;-72
2022/03/10 13:02:38;;;;;;;13.60;8.25;;;;;;;17.94;24.85;101254.72;8290445;34;20156;-72
2022/03/10 13:07:43;;;;;;;13.90;8.35;;;;;;;18.96;25.24;101239.97;8289848;34;20481;-72
2022/03/10 13:12:48;;;;;;;13.95;9.50;;;;;;;18.74;24.59;101241.31;8283191;34;20514;-72
2022/03/10 13:17:53;;;;;;;12.68;8.48;;;;;;;18.82;24.89;101232.38;8263594;34;20926;-72
2022/03/10 13:23:02;;;;;;;11.35;8.40;;;;;;;18.93;24.19;101241.13;8284850;34;20190;-72
2022/03/10 13:28:08;;;;;;;11.60;8.35;;;;;;;19.74;23.81;101226.31;8283595;34;20468;-72
2022/03/10 13:33:13;;;;;;;10.55;8.50;;;;;;;20.98;22.49;101220.91;8233590;34;20665;-72
2022/03/10 13:38:20;;;;;;;12.00;8.75;;;;;;;22.25;21.36;101210.88;8227468;34;20448;-73
2022/03/10 13:43:26;;;;;;;14.32;9.30;;;;;;;21.65;22.02;101200.59;8229385;34;20458;-72
2022/03/10 13:48:29;;;;;;;13.13;9.05;;;;;;;21.89;21.73;101205.97;8230920;34;20710;-72
2022/03/10 13:53:33;;;;;;;14.38;9.15;;;;;;;22.61;21.40;101196.59;8210294;34;20188;-73
2022/03/10 13:58:37;;;;;;;13.48;9.50;;;;;;;22.03;21.49;101198.03;8179668;34;21049;-73
2022/03/10 14:03:41;;;;;;;13.18;8.35;;;;;;;22.27;21.51;101192.41;8206363;34;20239;-73
2022/03/10 14:08:51;;;;;;;10.55;8.00;;;;;;;21.97;20.97;101190.53;8206662;34;20438;-73
2022/03/10 14:14:03;;;;;;;14.20;9.57;;;;;;;21.61;21.68;101183.69;8205672;34;20535;-73
2022/03/10 14:19:06;;;;;;;14.43;9.32;;;;;;;21.46;21.71;101171.78;8205342;34;20184;-73
2022/03/10 14:24:11;;;;;;;12.07;8.55;;;;;;;22.01;21.13;101172.75;8199710;34;20877;-72
2022/03/10 14:29:16;;;;;;;11.85;8.75;;;;;;;21.65;21.04;101165.88;8198201;34;20429;-72
2022/03/10 14:34:19;;;;;;;11.75;8.70;;;;;;;21.47;21.85;101172.63;8175811;34;20410;-72
2022/03/10 14:39:23;;;;;;;13.60;8.98;;;;;;;20.50;22.11;101164.44;8226807;34;20684;-72
2022/03/10 14:44:26;;;;;;;11.57;8.07;;;;;;;21.19;22.37;101162.16;8236850;34;20351;-73
2022/03/10 14:49:29;;;;;;;11.15;7.90;;;;;;;21.54;21.51;101143.56;8233098;34;20956;-74
2022/03/10 14:54:34;;;;;;;10.98;7.78;;;;;;;22.22;20.79;101142.00;8241763;34;21011;-74
2022/03/10 14:59:37;;;;;;;12.45;8.73;;;;;;;21.58;21.32;101147.63;8240813;34;20573;-73
2022/03/10 15:04:40;;;;;;;11.27;8.30;;;;;;;21.42;21.17;101130.31;8241145;34;20156;-73
2022/03/10 15:09:44;;;;;;;13.38;8.82;;;;;;;21.41;21.29;101133.19;8242420;34;20181;-73
2022/03/10 15:14:48;;;;;;;12.43;7.88;;;;;;;20.01;22.13;101135.22;8239342;34;20444;-73
2022/03/10 15:19:51;;;;;;;9.80;7.53;;;;;;;19.52;22.83;101132.34;8231575;34;20234;-73
2022/03/10 15:24:55;;;;;;;11.27;7.50;;;;;;;18.08;24.37;101125.63;8221853;34;20161;-73
2022/03/10 15:29:58;;;;;;;9.45;6.75;;;;;;;16.71;25.66;101130.84;8213848;34;20436;-73
2022/03/10 15:35:01;;;;;;;10.50;7.38;;;;;;;16.08;26.13;101122.31;8237592;34;20472;-73
2022/03/10 15:40:07;;;;;;;12.00;7.18;;;;;;;15.72;26.81;101110.31;8217201;34;20485;-73
2022/03/10 15:45:13;;;;;;;11.40;6.78;;;;;;;15.99;26.70;101110.50;8238903;34;20591;-73
2022/03/10 15:50:18;;;;;;;10.05;6.10;;;;;;;15.68;26.57;101102.44;8233959;34;20552;-73
2022/03/10 15:55:22;;;;;;;10.55;6.75;;;;;;;15.88;26.41;101105.22;8217995;34;20141;-72
2022/03/10 16:00:25;;;;;;;8.40;6.25;;;;;;;15.66;26.82;101104.47;8226767;34;20426;-73
2022/03/10 16:05:28;;;;;;;9.73;5.97;;;;;;;15.33;27.06;101108.34;8227862;34;20507;-73
2022/03/10 16:10:33;;;;;;;10.38;5.63;;;;;;;14.93;27.20;101108.31;8228674;34;20429;-73
2022/03/10 16:15:36;;;;;;;8.27;5.60;;;;;;;15.18;27.38;101107.84;8246657;34;20894;-73
2022/03/10 16:20:40;;;;;;;10.40;6.43;;;;;;;15.18;27.19;101110.56;8272832;34;21038;-73
2022/03/10 16:25:45;;;;;;;7.60;5.50;;;;;;;14.72;27.36;101102.94;8288429;34;20436;-73
2022/03/10 16:30:52;;;;;;;9.13;5.40;;;;;;;14.47;28.41;101099.66;8287349;34;20420;-73
2022/03/10 16:35:55;;;;;;;8.88;5.65;;;;;;;14.07;28.78;101107.56;8277164;34;20472;-73
2022/03/10 16:40:59;;;;;;;8.30;5.93;;;;;;;14.05;29.09;101113.13;8281718;34;20501;-73
2022/03/10 16:46:03;;;;;;;9.60;6.25;;;;;;;13.88;30.02;101111.00;8281142;34;20233;-73
2022/03/10 16:51:08;;;;;;;7.78;5.80;;;;;;;13.69;30.74;101117.06;8223113;34;20556;-73
2022/03/10 16:56:12;;;;;;;6.43;4.63;;;;;;;13.43;30.88;101114.66;8273496;34;20188;-73
2022/03/10 17:01:17;;;;;;;9.13;5.13;;;;;;;13.16;31.61;101114.16;8270825;34;20429;-72
2022/03/10 17:06:21;;;;;;;8.73;5.20;;;;;;;12.87;32.10;101105.72;8266139;34;20564;-73
2022/03/10 17:11:25;;;;;;;10.60;6.05;;;;;;;12.41;32.56;101109.31;8264401;34;20148;-73
2022/03/10 17:16:31;;;;;;;10.32;6.35;;;;;;;11.97;33.86;101113.53;8263967;34;20460;-72
2022/03/10 17:21:36;;;;;;;12.27;8.13;;;;;;;11.81;34.15;101106.59;8263804;34;21029;-73
2022/03/10 17:33:46;;;;;;;16.02;9.90;;;;;;;11.21;34.90;101112.84;8264832;34;20155;-73
2022/03/10 17:38:50;;;;;;;25.92;13.25;;;;;;;10.97;34.91;101118.09;8255246;34;20425;-72
2022/03/10 17:43:54;;;;;;;32.65;20.08;;;;;;;10.86;35.19;101116.19;8237144;34;20179;-72
2022/03/10 17:56:06;;;;;;;15.50;8.73;;;;;;;10.36;36.40;101125.94;8303669;34;20375;-73
2022/03/10 18:01:09;;;;;;;22.65;13.55;;;;;;;10.15;36.93;101130.97;8292458;34;20422;-73
2022/03/10 18:06:12;;;;;;;15.77;11.00;;;;;;;9.90;37.53;101124.56;8300423;34;20198;-73
2022/03/10 18:11:16;;;;;;;23.75;11.20;;;;;;;9.80;38.40;101128.75;8293415;34;20856;-73
2022/03/10 18:16:20;;;;;;;20.90;13.55;;;;;;;9.55;39.49;101124.16;8291777;34;20300;-73
2022/03/10 18:21:24;;;;;;;28.52;15.80;;;;;;;9.50;39.56;101128.94;8283876;34;20191;-72
2022/03/10 18:26:28;;;;;;;18.42;11.10;;;;;;;9.53;39.67;101125.22;8287938;34;20636;-73
2022/03/10 18:31:31;;;;;;;19.08;11.48;;;;;;;9.27;40.11;101120.56;8289296;34;20893;-73
2022/03/10 18:36:35;;;;;;;20.13;10.68;;;;;;;9.17;40.83;101121.25;8291830;34;20422;-73
2022/03/10 18:41:39;;;;;;;18.42;12.63;;;;;;;9.08;41.32;101121.81;8282897;34;20205;-73
2022/03/10 18:46:42;;;;;;;20.33;12.10;;;;;;;8.95;41.76;101119.91;8290700;34;20441;-73
2022/03/10 18:51:46;;;;;;;19.25;12.02;;;;;;;8.81;41.88;101122.59;8289748;34;20491;-72
2022/03/10 18:56:50;;;;;;;19.15;12.68;;;;;;;8.65;42.16;101124.50;8283865;34;20231;-72
2022/03/10 19:01:55;;;;;;;21.85;12.68;;;;;;;8.60;42.16;101119.41;8283680;34;20428;-73
2022/03/10 19:06:58;;;;;;;17.92;11.32;;;;;;;8.48;42.26;101113.00;8291733;34;20160;-73
2022/03/10 19:12:03;;;;;;;20.08;11.70;;;;;;;8.45;42.16;101113.16;8317552;34;20201;-73
2022/03/10 19:17:06;;;;;;;20.67;12.57;;;;;;;8.40;42.15;101115.25;8315092;34;20155;-73
2022/03/10 19:22:09;;;;;;;22.60;12.23;;;;;;;8.24;41.91;101107.25;8315627;34;20273;-73
2022/03/10 19:27:14;;;;;;;18.77;12.07;;;;;;;8.18;41.99;101121.03;8317363;34;20456;-73
2022/03/10 19:32:17;;;;;;;22.92;11.18;;;;;;;8.22;41.75;101114.53;8305378;34;20188;-73
2022/03/10 19:37:21;;;;;;;22.20;12.60;;;;;;;7.96;41.48;101110.72;8293076;34;20504;-73
2022/03/10 19:42:28;;;;;;;17.98;10.65;;;;;;;8.06;40.60;101108.34;8292635;34;20439;-73
2022/03/10 19:47:32;;;;;;;17.00;11.20;;;;;;;7.85;40.38;101107.81;8286001;34;20195;-73
2022/03/10 19:52:35;;;;;;;18.42;10.88;;;;;;;7.80;40.06;101104.53;8320327;34;20159;-73
2022/03/10 19:57:40;;;;;;;15.93;10.18;;;;;;;7.86;39.90;101099.69;8335753;34;20136;-73
2022/03/10 20:02:45;;;;;;;13.88;9.50;;;;;;;7.68;40.04;101095.41;8339112;34;20411;-73
2022/03/10 20:07:48;;;;;;;15.05;9.38;;;;;;;7.56;40.04;101098.78;8325707;34;20350;-73
2022/03/10 20:12:52;;;;;;;13.60;8.35;;;;;;;7.42;40.09;101100.44;8301520;34;20233;-73
2022/03/10 20:17:55;;;;;;;16.05;9.07;;;;;;;7.36;40.65;101092.75;8318064;34;20465;-73
2022/03/10 20:22:59;;;;;;;12.45;7.50;;;;;;;7.42;40.66;101095.06;8315939;34;20502;-73
2022/03/10 20:28:09;;;;;;;20.33;10.02;;;;;;;7.28;41.26;101093.19;8321882;34;20458;-71
2022/03/10 20:33:15;;;;;;;10.82;7.47;;;;;;;7.20;41.88;101084.72;8323660;34;20155;-73
2022/03/10 20:38:19;;;;;;;13.05;7.22;;;;;;;7.27;42.48;101083.44;8302331;34;20549;-72
2022/03/10 20:43:25;;;;;;;11.90;7.80;;;;;;;6.97;43.76;101075.34;8285286;34;20151;-72
2022/03/10 20:48:29;;;;;;;13.07;7.13;;;;;;;6.82;44.43;101068.97;8291459;34;21124;-73
2022/03/10 20:53:32;;;;;;;11.85;7.18;;;;;;;6.92;44.56;101061.38;8285646;34;20689;-72
2022/03/10 20:58:36;;;;;;;13.40;6.90;;;;;;;6.91;45.35;101070.34;8293158;34;20152;-72
2022/03/10 21:03:39;;;;;;;11.60;7.18;;;;;;;7.05;45.24;101067.75;8282687;34;20462;-73
2022/03/10 21:08:42;;;;;;;14.00;7.85;;;;;;;6.83;45.92;101072.53;8291832;34;20572;-72
2022/03/10 21:13:47;;;;;;;15.50;8.63;;;;;;;6.48;46.84;101059.25;8284833;34;20466;-71
2022/03/10 21:18:50;;;;;;;17.45;8.98;;;;;;;6.56;46.96;101061.53;8295734;34;20194;-72
2022/03/10 21:23:56;;;;;;;15.07;9.07;;;;;;;6.58;47.30;101063.16;8311874;34;20150;-74
2022/03/10 21:29:01;;;;;;;15.55;9.05;;;;;;;6.49;47.50;101057.44;8312410;34;20284;-72
2022/03/10 21:34:04;;;;;;;19.00;10.50;;;;;;;6.53;47.95;101057.22;8313132;34;20182;-74
2022/03/10 21:39:10;;;;;;;17.35;9.45;;;;;;;6.29;49.10;101055.84;8312008;34;20194;-74
2022/03/10 21:44:15;;;;;;;16.50;8.95;;;;;;;6.29;48.72;101054.03;8314007;34;20463;-73
2022/03/10 21:49:18;;;;;;;16.83;9.57;;;;;;;6.18;49.30;101045.72;8314935;34;20154;-71
2022/03/10 21:54:22;;;;;;;15.63;8.20;;;;;;;6.07;49.56;101046.28;8315938;34;20675;-72
2022/03/10 21:59:26;;;;;;;18.13;10.65;;;;;;;6.09;49.82;101048.88;8313081;34;20187;-73
2022/03/10 22:04:30;;;;;;;18.00;10.18;;;;;;;5.78;50.87;101052.22;8317218;34;20443;-74
2022/03/10 22:09:33;;;;;;;16.05;9.65;;;;;;;5.92;50.64;101052.38;8312246;34;20211;-73
2022/03/10 22:14:37;;;;;;;18.90;10.90;;;;;;;5.83;50.97;101051.06;8293783;34;20201;-73
2022/03/10 22:19:40;;;;;;;18.67;10.82;;;;;;;5.70;51.51;101050.84;8291042;34;20437;-73
2022/03/10 22:24:44;;;;;;;21.58;10.85;;;;;;;5.72;51.84;101051.59;8265169;34;20482;-73
2022/03/10 22:29:49;;;;;;;19.75;11.20;;;;;;;5.66;52.06;101051.91;8291169;34;20282;-73
2022/03/10 22:34:52;;;;;;;19.27;11.38;;;;;;;5.60;52.21;101048.69;8287218;34;20675;-73
2022/03/10 22:39:55;;;;;;;17.00;10.60;;;;;;;5.57;52.47;101054.16;8289865;34;20487;-73
2022/03/10 22:45:00;;;;;;;18.25;11.35;;;;;;;5.60;52.25;101052.22;8292873;34;20535;-73
2022/03/10 22:55:25;;;;;;;23.85;13.13;;;;;;;5.54;52.32;101044.53;8294066;34;21318;-73
2022/03/10 23:00:38;;;;;;;23.60;11.73;;;;;;;5.47;52.96;101038.63;8314683;34;20629;-73
2022/03/10 23:11:02;;;;;;;24.13;13.13;;;;;;;5.38;52.93;101031.09;8264504;34;20230;-73
2022/03/10 23:16:07;;;;;;;22.65;12.88;;;;;;;5.27;53.33;101025.44;8269331;34;20517;-73
2022/03/10 23:21:10;;;;;;;24.90;13.90;;;;;;;5.30;53.28;101029.75;8264327;34;20493;-73
2022/03/10 23:26:13;;;;;;;24.27;12.90;;;;;;;5.20;53.58;101022.19;8265133;34;20545;-73
2022/03/10 23:31:17;;;;;;;23.02;13.50;;;;;;;4.98;54.07;101021.47;8268992;34;20477;-73
2022/03/10 23:36:21;;;;;;;24.73;13.15;;;;;;;4.97;54.12;101028.59;8265603;34;20231;-73
2022/03/10 23:41:24;;;;;;;24.00;13.35;;;;;;;5.09;53.83;101028.97;8267795;34;20258;-73
2022/03/10 23:46:29;;;;;;;27.83;14.07;;;;;;;5.08;53.88;101024.59;8268807;34;21024;-73
2022/03/10 23:51:32;;;;;;;25.17;13.00;;;;;;;4.96;54.12;101029.50;8265242;34;20206;-73
2022/03/10 23:56:35;;;;;;;26.38;14.23;;;;;;;4.77;54.52;101024.22;8267121;34;20206;-73
